createdAt,value
2018-11-21T00:01:05.496Z,64.70
2018-11-21T00:03:34.453Z,64.80
2018-11-21T00:06:04.367Z,64.80
2018-11-21T00:08:34.709Z,64.80
2018-11-21T00:11:04.517Z,64.90
2018-11-21T00:13:34.624Z,64.90
2018-11-21T00:16:04.642Z,64.90
2018-11-21T00:18:34.579Z,64.90
2018-11-21T00:21:04.087Z,65.00
2018-11-21T00:23:34.260Z,65.00
2018-11-21T00:26:03.996Z,65.10
2018-11-21T00:28:32.846Z,65.20
2018-11-21T00:31:02.253Z,65.20
2018-11-21T00:33:32.100Z,65.20
2018-11-21T00:36:02.776Z,65.20
2018-11-21T00:38:33.025Z,65.30
2018-11-21T00:41:02.777Z,65.30
2018-11-21T00:43:35.710Z,65.40
2018-11-21T00:46:09.519Z,65.40
2018-11-21T00:48:39.044Z,65.30
2018-11-21T00:51:08.764Z,65.30
2018-11-21T00:53:38.541Z,65.40
2018-11-21T00:56:27.672Z,65.60
2018-11-21T00:58:57.371Z,65.40
2018-11-21T01:01:30.038Z,65.50
2018-11-21T01:04:00.160Z,65.50
2018-11-21T01:06:30.304Z,65.40
2018-11-21T01:09:05.028Z,65.40
2018-11-21T01:11:35.455Z,65.50
2018-11-21T01:14:05.835Z,65.50
2018-11-21T01:16:36.112Z,65.50
2018-11-21T01:19:06.187Z,65.60
2018-11-21T01:21:35.703Z,65.60
2018-11-21T01:24:05.712Z,65.50
2018-11-21T01:26:35.993Z,65.50
2018-11-21T01:29:05.840Z,65.50
2018-11-21T01:31:35.397Z,65.40
2018-11-21T01:34:05.610Z,65.40
2018-11-21T01:36:35.142Z,65.30
2018-11-21T01:39:05.637Z,65.30
2018-11-21T01:41:35.505Z,65.20
2018-11-21T01:44:06.180Z,65.30
2018-11-21T01:46:37.141Z,65.20
2018-11-21T01:49:07.675Z,65.20
2018-11-21T01:51:42.832Z,65.10
2018-11-21T01:54:12.973Z,65.00
2018-11-21T01:56:43.238Z,65.20
2018-11-21T01:59:14.777Z,65.10
2018-11-21T02:01:43.578Z,65.10
2018-11-21T02:04:13.414Z,65.00
2018-11-21T02:06:43.589Z,65.00
2018-11-21T02:09:14.165Z,65.10
2018-11-21T02:11:43.814Z,65.20
2018-11-21T02:14:15.388Z,65.20
2018-11-21T02:16:45.528Z,65.30
2018-11-21T02:19:15.013Z,65.20
2018-11-21T02:21:44.806Z,65.30
2018-11-21T02:24:15.055Z,65.30
2018-11-21T02:26:45.148Z,65.30
2018-11-21T02:29:14.787Z,65.30
2018-11-21T02:31:45.057Z,65.40
2018-11-21T02:34:14.709Z,65.50
2018-11-21T02:36:44.827Z,65.60
2018-11-21T02:39:14.973Z,65.60
2018-11-21T02:41:45.273Z,65.50
2018-11-21T02:44:14.826Z,65.50
2018-11-21T02:46:45.041Z,65.60
2018-11-21T02:49:21.883Z,65.50
2018-11-21T02:51:47.381Z,65.60
2018-11-21T02:54:16.901Z,65.70
2018-11-21T02:57:19.074Z,65.70
2018-11-21T02:59:50.423Z,65.80
2018-11-21T03:02:19.986Z,65.80
2018-11-21T03:04:49.831Z,65.90
2018-11-21T03:07:19.429Z,65.90
2018-11-21T03:09:49.361Z,65.90
2018-11-21T03:12:19.271Z,65.80
2018-11-21T03:14:49.695Z,65.80
2018-11-21T03:17:21.559Z,65.70
2018-11-21T03:19:49.675Z,65.70
2018-11-21T03:22:19.591Z,65.60
2018-11-21T03:24:49.029Z,65.60
2018-11-21T03:27:19.306Z,65.30
2018-11-21T03:29:49.590Z,65.40
2018-11-21T03:32:19.894Z,65.30
2018-11-21T03:34:49.338Z,65.30
2018-11-21T03:37:18.477Z,65.20
2018-11-21T03:39:51.155Z,65.20
2018-11-21T03:42:40.833Z,65.20
2018-11-21T03:45:12.725Z,65.00
2018-11-21T03:47:42.531Z,65.10
2018-11-21T03:50:13.488Z,64.90
2018-11-21T03:52:43.356Z,64.80
2018-11-21T03:55:15.943Z,64.80
2018-11-21T03:57:46.322Z,64.70
2018-11-21T04:00:16.462Z,64.60
2018-11-21T04:02:46.893Z,64.60
2018-11-21T04:05:16.369Z,64.50
2018-11-21T04:07:46.697Z,64.40
2018-11-21T04:10:16.381Z,64.40
2018-11-21T04:12:46.184Z,64.20
2018-11-21T04:15:15.849Z,64.20
2018-11-21T04:17:45.672Z,64.10
2018-11-21T04:20:15.075Z,64.20
2018-11-21T04:22:44.523Z,64.20
2018-11-21T04:25:14.676Z,64.10
2018-11-21T04:27:44.527Z,64.10
2018-11-21T04:30:16.931Z,64.00
2018-11-21T04:32:46.904Z,63.90
2018-11-21T04:35:20.671Z,63.80
2018-11-21T04:37:51.330Z,63.80
2018-11-21T04:40:23.479Z,63.60
2018-11-21T04:42:52.142Z,63.50
2018-11-21T04:45:21.742Z,63.50
2018-11-21T04:47:55.974Z,63.40
2018-11-21T04:50:24.313Z,63.30
2018-11-21T04:52:54.634Z,63.30
2018-11-21T04:55:25.172Z,63.30
2018-11-21T04:57:55.488Z,63.40
2018-11-21T05:00:27.733Z,63.40
2018-11-21T05:02:58.121Z,63.30
2018-11-21T05:05:28.232Z,63.20
2018-11-21T05:07:58.055Z,63.10
2018-11-21T05:10:27.977Z,63.10
2018-11-21T05:12:59.146Z,63.00
2018-11-21T05:15:28.789Z,62.90
2018-11-21T05:17:58.586Z,63.00
2018-11-21T05:20:28.387Z,62.90
2018-11-21T05:23:00.521Z,63.00
2018-11-21T05:25:30.924Z,62.80
2018-11-21T05:28:00.758Z,62.60
2018-11-21T05:30:32.112Z,62.60
2018-11-21T05:33:02.523Z,62.50
2018-11-21T05:35:32.460Z,62.50
2018-11-21T05:38:02.304Z,62.40
2018-11-21T05:40:32.627Z,62.50
2018-11-21T05:43:31.858Z,62.50
2018-11-21T05:46:25.237Z,62.50
2018-11-21T05:48:55.597Z,62.50
2018-11-21T05:51:27.030Z,62.40
2018-11-21T05:54:10.095Z,62.30
2018-11-21T05:56:29.202Z,62.20
2018-11-21T05:58:59.697Z,62.20
2018-11-21T06:01:29.043Z,62.30
2018-11-21T06:03:58.986Z,62.40
2018-11-21T06:06:30.101Z,62.50
2018-11-21T06:09:00.165Z,62.60
2018-11-21T06:11:29.946Z,62.60
2018-11-21T06:13:59.741Z,62.60
2018-11-21T06:16:29.581Z,62.50
2018-11-21T06:19:01.696Z,61.90
2018-11-21T06:21:30.241Z,62.40
2018-11-21T06:24:02.446Z,62.40
2018-11-21T06:26:31.595Z,62.30
2018-11-21T06:29:01.520Z,62.30
2018-11-21T06:31:31.743Z,62.30
2018-11-21T06:34:02.619Z,62.30
2018-11-21T06:36:32.775Z,62.30
2018-11-21T06:39:03.237Z,62.30
2018-11-21T06:41:36.664Z,62.30
2018-11-21T06:44:04.377Z,62.20
2018-11-21T06:46:38.331Z,62.10
2018-11-21T06:52:03.507Z,62.10
2018-11-21T06:54:40.044Z,62.10
2018-11-21T06:57:22.170Z,62.10
2018-11-21T06:59:52.408Z,62.10
2018-11-21T07:02:25.376Z,62.10
2018-11-21T07:04:54.893Z,61.90
2018-11-21T07:07:25.758Z,61.90
2018-11-21T07:09:55.344Z,61.90
2018-11-21T07:12:27.731Z,61.90
2018-11-21T07:14:58.102Z,61.90
2018-11-21T07:17:28.172Z,61.90
2018-11-21T07:19:58.429Z,61.90
2018-11-21T07:22:28.812Z,61.80
2018-11-21T07:24:59.754Z,61.80
2018-11-21T07:27:29.930Z,61.80
2018-11-21T07:29:59.981Z,61.80
2018-11-21T07:32:32.982Z,61.70
2018-11-21T07:35:02.855Z,61.80
2018-11-21T07:37:34.335Z,61.70
2018-11-21T07:40:04.278Z,61.70
2018-11-21T07:42:37.493Z,61.70
2018-11-21T07:45:09.413Z,61.80
2018-11-21T07:47:39.958Z,61.80
2018-11-21T07:50:12.615Z,62.40
2018-11-21T07:52:42.337Z,61.70
2018-11-21T07:55:12.504Z,61.70
2018-11-21T07:57:53.276Z,61.80
2018-11-21T08:01:15.790Z,61.70
2018-11-21T08:03:52.790Z,61.70
2018-11-21T08:06:24.816Z,61.50
2018-11-21T08:09:22.805Z,61.50
2018-11-21T08:12:17.618Z,61.50
2018-11-21T08:15:28.489Z,61.60
2018-11-21T08:18:07.542Z,61.80
2018-11-21T08:20:54.869Z,62.10
2018-11-21T08:23:55.495Z,61.40
2018-11-21T08:26:46.366Z,61.20
2018-11-21T08:29:16.366Z,61.30
2018-11-21T08:31:46.148Z,61.10
2018-11-21T08:34:15.029Z,61.10
2018-11-21T08:36:44.303Z,61.00
2018-11-21T08:39:14.000Z,61.00
2018-11-21T08:41:43.916Z,61.00
2018-11-21T08:44:13.961Z,60.90
2018-11-21T08:46:43.987Z,60.80
2018-11-21T08:49:13.713Z,60.80
2018-11-21T08:51:46.194Z,60.80
2018-11-21T08:56:55.815Z,60.70
2018-11-21T08:59:35.540Z,60.70
2018-11-21T09:02:09.733Z,60.90
2018-11-21T09:04:43.337Z,60.80
2018-11-21T09:07:15.007Z,60.70
2018-11-21T09:09:44.175Z,60.70
2018-11-21T09:12:15.437Z,60.50
2018-11-21T09:14:44.712Z,60.30
2018-11-21T09:17:33.092Z,60.40
2018-11-21T09:22:52.503Z,60.10
2018-11-21T09:25:23.291Z,60.10
2018-11-21T09:27:53.162Z,60.10
2018-11-21T09:30:24.214Z,60.10
2018-11-21T09:32:55.653Z,60.00
2018-11-21T09:35:25.142Z,60.00
2018-11-21T09:37:54.973Z,59.90
2018-11-21T09:40:25.347Z,60.00
2018-11-21T09:42:56.225Z,60.00
2018-11-21T09:45:26.654Z,59.80
2018-11-21T09:47:56.708Z,59.80
2018-11-21T09:50:28.794Z,59.80
2018-11-21T09:53:00.500Z,59.80
2018-11-21T09:55:29.545Z,59.70
2018-11-21T09:57:58.986Z,59.80
2018-11-21T10:01:04.579Z,59.80
2018-11-21T10:03:36.332Z,59.80
2018-11-21T10:06:11.857Z,59.90
2018-11-21T10:08:59.564Z,60.00
2018-11-21T10:11:30.709Z,60.00
2018-11-21T10:14:00.415Z,60.00
2018-11-21T10:16:30.538Z,60.00
2018-11-21T10:19:01.405Z,60.00
2018-11-21T10:21:32.497Z,60.00
2018-11-21T10:24:02.858Z,60.00
2018-11-21T10:26:33.028Z,60.10
2018-11-21T10:29:03.211Z,60.10
2018-11-21T10:31:44.590Z,60.10
2018-11-21T10:34:13.793Z,60.00
2018-11-21T10:36:44.088Z,60.00
2018-11-21T10:39:13.552Z,60.00
2018-11-21T10:41:43.531Z,60.00
2018-11-21T10:44:14.203Z,60.00
2018-11-21T10:46:47.030Z,60.00
2018-11-21T10:49:18.203Z,60.00
2018-11-21T10:51:52.662Z,60.00
2018-11-21T10:54:21.210Z,59.90
2018-11-21T10:56:50.354Z,59.90
2018-11-21T10:59:23.369Z,60.70
2018-11-21T11:02:10.843Z,59.90
2018-11-21T11:05:17.295Z,59.90
2018-11-21T11:08:18.947Z,59.90
2018-11-21T11:10:59.754Z,59.80
2018-11-21T11:13:48.267Z,59.70
2018-11-21T11:16:36.819Z,59.70
2018-11-21T11:19:23.924Z,59.60
2018-11-21T11:22:11.577Z,59.60
2018-11-21T11:24:59.303Z,59.80
2018-11-21T11:27:54.610Z,59.70
2018-11-21T11:30:59.779Z,59.70
2018-11-21T11:33:53.945Z,59.60
2018-11-21T11:36:53.748Z,59.50
2018-11-21T11:39:42.875Z,59.50
2018-11-21T11:42:30.868Z,59.40
2018-11-21T11:45:18.280Z,59.30
2018-11-21T11:48:07.083Z,59.10
2018-11-21T11:50:51.895Z,59.20
2018-11-21T11:53:55.954Z,59.10
2018-11-21T11:56:43.161Z,59.10
2018-11-21T11:59:31.237Z,59.20
2018-11-21T12:02:18.450Z,59.10
2018-11-21T12:05:15.971Z,59.20
2018-11-21T12:08:10.145Z,59.10
2018-11-21T12:11:00.076Z,59.20
2018-11-21T12:13:47.288Z,59.20
2018-11-21T12:16:43.281Z,59.20
2018-11-21T12:19:34.231Z,59.10
2018-11-21T12:22:09.743Z,59.20
2018-11-21T12:25:19.109Z,59.00
2018-11-21T12:28:26.303Z,59.00
2018-11-21T12:31:15.039Z,58.80
2018-11-21T12:34:03.784Z,58.80
2018-11-21T12:36:51.114Z,58.70
2018-11-21T12:39:42.351Z,58.70
2018-11-21T12:42:29.834Z,58.60
2018-11-21T12:45:11.015Z,58.60
2018-11-21T12:47:59.607Z,58.60
2018-11-21T12:50:41.602Z,58.60
2018-11-21T12:53:42.433Z,58.60
2018-11-21T12:56:30.575Z,58.60
2018-11-21T12:59:23.671Z,58.50
2018-11-21T13:02:27.132Z,58.40
2018-11-21T13:05:14.206Z,58.30
2018-11-21T13:08:00.885Z,58.30
2018-11-21T13:10:37.556Z,58.30
2018-11-21T13:13:35.446Z,58.00
2018-11-21T13:16:22.726Z,58.10
2018-11-21T13:19:23.279Z,58.20
2018-11-21T13:22:30.147Z,58.30
2018-11-21T13:25:17.695Z,58.30
2018-11-21T13:28:09.917Z,58.30
2018-11-21T13:31:16.612Z,58.30
2018-11-21T13:34:11.302Z,58.30
2018-11-21T13:36:51.861Z,58.40
2018-11-21T13:39:39.316Z,58.40
2018-11-21T13:42:30.579Z,58.40
2018-11-21T13:45:17.113Z,58.50
2018-11-21T13:48:00.743Z,58.50
2018-11-21T13:50:48.508Z,58.50
2018-11-21T13:53:35.089Z,58.60
2018-11-21T13:56:05.240Z,58.60
2018-11-21T13:58:35.434Z,58.70
2018-11-21T14:01:07.809Z,58.70
2018-11-21T14:03:37.840Z,58.70
2018-11-21T14:06:11.310Z,58.80
2018-11-21T14:08:44.617Z,58.80
2018-11-21T14:11:26.669Z,58.80
2018-11-21T14:14:01.458Z,58.80
2018-11-21T14:16:31.679Z,58.80
2018-11-21T14:19:02.336Z,58.80
2018-11-21T14:21:34.527Z,58.80
2018-11-21T14:24:03.503Z,58.80
2018-11-21T14:26:35.410Z,58.70
2018-11-21T14:29:04.361Z,58.80
2018-11-21T14:31:37.636Z,58.80
2018-11-21T14:34:08.545Z,58.80
2018-11-21T14:36:38.806Z,58.80
2018-11-21T14:39:18.424Z,58.80
2018-11-21T14:41:48.875Z,58.90
2018-11-21T14:44:18.852Z,58.90
2018-11-21T14:46:50.591Z,59.00
2018-11-21T14:49:20.524Z,59.30
2018-11-21T14:51:59.420Z,59.00
2018-11-21T14:54:32.634Z,59.10
2018-11-21T14:57:02.133Z,59.20
2018-11-21T14:59:32.929Z,59.20
2018-11-21T15:02:03.412Z,59.10
2018-11-21T15:04:34.430Z,59.20
